Time;durP1;ratioP1;P1;durP2;ratioP2;P2;SDS_P1;SDS_P2;PMS_P1;PMS_P2;Temp;Humidity;BMP_temperature;BMP_pressure;BME280_temperature;BME280_humidity;BME280_pressure;Samples;Min_cycle;Max_cycle;Signal;HPM_P1;HPM_P2
2021/09/29 00:02:16;;;;;;;0.15;0.15;;;16.00;99.90;;;;;;4994296;28;20027;-77
2021/09/29 00:04:42;;;;;;;0.28;0.28;;;16.00;99.90;;;;;;4976500;28;20023;-78
2021/09/29 00:07:08;;;;;;;0.32;0.32;;;16.00;99.90;;;;;;4976631;28;20077;-77
2021/09/29 00:09:34;;;;;;;0.40;0.40;;;16.10;99.90;;;;;;4976790;28;20442;-77
2021/09/29 00:12:00;;;;;;;0.10;0.10;;;16.10;99.90;;;;;;4993898;28;20030;-77
2021/09/29 00:14:26;;;;;;;0.45;0.45;;;16.00;99.90;;;;;;4976199;28;20585;-77
2021/09/29 00:16:51;;;;;;;0.10;0.10;;;16.00;99.90;;;;;;4976229;28;20022;-77
2021/09/29 00:19:17;;;;;;;0.20;0.20;;;16.10;99.90;;;;;;4976707;28;20089;-77
2021/09/29 00:21:43;;;;;;;3.15;1.85;;;16.20;99.90;;;;;;4976659;28;20393;-77
2021/09/29 00:24:09;;;;;;;0.10;0.10;;;16.10;99.90;;;;;;4993869;28;20030;-77
2021/09/29 00:26:35;;;;;;;0.03;0.03;;;16.00;99.90;;;;;;4993576;28;20394;-78
2021/09/29 00:29:00;;;;;;;0.10;0.10;;;15.90;99.90;;;;;;4976237;28;20036;-77
2021/09/29 00:31:33;;;;;;;0.10;0.10;;;15.80;99.90;;;;;;4960200;28;20041;-77
2021/09/29 00:37:00;;;;;;;0.93;0.90;;;16.00;99.90;;;;;;4964846;28;20042;-77
2021/09/29 00:39:25;;;;;;;0.10;0.10;;;16.00;99.90;;;;;;4976046;28;20030;-77
2021/09/29 00:41:51;;;;;;;1.23;1.15;;;15.90;99.90;;;;;;4993507;28;20080;-78
2021/09/29 00:44:18;;;;;;;0.10;0.10;;;16.10;99.90;;;;;;4959922;28;20027;-77
2021/09/29 00:46:44;;;;;;;0.10;0.10;;;16.00;99.90;;;;;;4975945;28;20482;-78
2021/09/29 00:49:12;;;;;;;0.98;0.98;;;16.00;99.90;;;;;;4959821;28;20557;-77
2021/09/29 00:51:38;;;;;;;0.60;0.60;;;15.90;99.90;;;;;;4993252;28;20048;-77
2021/09/29 00:54:05;;;;;;;0.10;0.10;;;15.80;99.90;;;;;;4993321;28;20018;-77
2021/09/29 00:56:31;;;;;;;0.10;0.10;;;15.90;99.90;;;;;;4959695;28;20034;-77
2021/09/29 00:58:58;;;;;;;0.15;0.15;;;16.00;99.90;;;;;;4959600;28;20022;-77
2021/09/29 01:01:23;;;;;;;1.10;1.05;;;16.00;99.90;;;;;;4993085;28;20026;-77
2021/09/29 01:03:51;;;;;;;0.10;0.10;;;16.10;99.90;;;;;;4993028;28;20088;-77
2021/09/29 01:06:36;;;;;;;0.10;0.10;;;15.90;99.90;;;;;;4992932;28;20105;-77
2021/09/29 01:09:26;;;;;;;0.10;0.10;;;16.00;99.90;;;;;;4975557;28;20042;-77
2021/09/29 01:12:19;;;;;;;2.08;1.75;;;15.80;99.90;;;;;;4975397;28;20022;-77
2021/09/29 01:15:11;;;;;;;0.13;0.13;;;15.70;99.90;;;;;;4975353;28;20044;-77
2021/09/29 01:17:49;;;;;;;0.10;0.10;;;15.70;99.90;;;;;;4992906;28;20018;-77
2021/09/29 01:20:28;;;;;;;3.03;2.75;;;15.50;99.90;;;;;;4975485;28;20023;-77
2021/09/29 01:23:09;;;;;;;0.40;0.40;;;15.50;99.90;;;;;;4992938;28;20023;-78
2021/09/29 01:25:53;;;;;;;0.10;0.10;;;15.40;99.90;;;;;;4974796;28;20121;-77
2021/09/29 01:28:23;;;;;;;3.80;2.42;;;15.40;99.90;;;;;;4992918;28;20097;-77
2021/09/29 01:30:50;;;;;;;0.25;0.25;;;15.50;99.90;;;;;;4992928;28;20367;-77
2021/09/29 01:33:16;;;;;;;0.45;0.45;;;15.40;99.90;;;;;;4992714;28;20033;-77
2021/09/29 01:35:43;;;;;;;1.08;0.82;;;15.50;99.90;;;;;;4975032;28;20038;-78
2021/09/29 01:38:09;;;;;;;5.90;2.67;;;15.40;99.90;;;;;;4975196;28;20030;-77
2021/09/29 01:40:35;;;;;;;0.40;0.40;;;15.20;99.90;;;;;;4975295;28;20073;-77
2021/09/29 01:43:01;;;;;;;5.47;2.72;;;15.10;99.90;;;;;;4992466;28;20030;-77
2021/09/29 01:45:27;;;;;;;0.30;0.30;;;15.20;99.90;;;;;;4975000;28;20108;-77
2021/09/29 01:47:53;;;;;;;3.20;1.55;;;15.10;99.90;;;;;;4975139;28;20034;-76
2021/09/29 01:50:27;;;;;;;2.38;2.20;;;14.80;99.90;;;;;;4992510;28;20030;-77
2021/09/29 01:52:56;;;;;;;1.50;0.95;;;14.70;99.90;;;;;;4992681;28;20027;-77
2021/09/29 01:55:23;;;;;;;0.35;0.35;;;14.80;99.90;;;;;;4975031;28;20506;-77
2021/09/29 01:57:50;;;;;;;0.10;0.10;;;14.90;99.90;;;;;;4992967;28;20022;-77
2021/09/29 02:00:19;;;;;;;1.02;0.93;;;14.90;99.90;;;;;;4992552;28;20053;-77
2021/09/29 02:02:45;;;;;;;0.40;0.40;;;14.90;99.90;;;;;;4992504;28;20018;-77
2021/09/29 02:05:12;;;;;;;0.20;0.20;;;14.90;99.90;;;;;;4974887;28;20027;-77
2021/09/29 02:07:40;;;;;;;0.13;0.13;;;15.00;99.90;;;;;;4992320;28;20030;-77
2021/09/29 02:10:08;;;;;;;8.50;5.35;;;15.00;99.90;;;;;;4959046;28;20049;-77
2021/09/29 02:12:37;;;;;;;2.55;1.35;;;14.80;99.90;;;;;;4975108;28;20101;-77
2021/09/29 02:15:05;;;;;;;0.08;0.08;;;14.90;99.90;;;;;;4974734;28;20041;-77
2021/09/29 02:17:31;;;;;;;5.70;1.88;;;14.80;99.90;;;;;;4975007;28;20513;-77
2021/09/29 02:19:57;;;;;;;0.22;0.22;;;14.90;99.90;;;;;;4958932;28;20042;-77
2021/09/29 02:22:22;;;;;;;4.95;3.85;;;14.90;99.90;;;;;;4974856;28;20389;-77
2021/09/29 02:24:48;;;;;;;1.08;1.05;;;14.80;99.90;;;;;;4974831;28;20024;-77
2021/09/29 02:27:14;;;;;;;2.10;1.88;;;14.80;99.90;;;;;;4974705;28;20022;-77
2021/09/29 02:29:41;;;;;;;2.10;1.15;;;14.80;99.90;;;;;;4974732;28;20027;-77
2021/09/29 02:32:07;;;;;;;1.85;1.20;;;14.80;99.90;;;;;;4992139;28;20022;-78
2021/09/29 02:34:32;;;;;;;0.60;0.60;;;14.70;99.90;;;;;;4974438;28;20026;-77
2021/09/29 02:36:58;;;;;;;8.57;5.22;;;14.80;99.90;;;;;;4975097;28;20030;-77
2021/09/29 02:39:24;;;;;;;3.63;1.55;;;14.70;99.90;;;;;;4978328;28;20025;-78
2021/09/29 02:41:50;;;;;;;0.45;0.45;;;14.60;99.90;;;;;;4978362;28;20103;-78
2021/09/29 02:44:16;;;;;;;2.75;1.65;;;14.60;99.90;;;;;;4978261;28;20495;-77
2021/09/29 02:46:42;;;;;;;6.88;3.28;;;14.60;99.90;;;;;;4961915;28;20041;-77
2021/09/29 02:49:10;;;;;;;0.00;0.00;;;14.70;99.90;;;;;;4995557;28;20053;-77
2021/09/29 02:51:36;;;;;;;3.38;2.22;;;14.60;99.90;;;;;;4978297;28;20026;-78
2021/09/29 02:54:03;;;;;;;1.98;1.33;;;14.70;99.90;;;;;;4995498;28;20026;-77
2021/09/29 02:56:29;;;;;;;0.10;0.10;;;14.70;99.90;;;;;;4995351;28;20022;-77
2021/09/29 02:58:57;;;;;;;2.53;1.35;;;14.70;99.90;;;;;;4995369;28;20044;-77
2021/09/29 03:01:23;;;;;;;1.13;1.13;;;14.70;99.90;;;;;;4995071;28;20057;-78
2021/09/29 03:03:49;;;;;;;3.83;1.00;;;14.80;99.90;;;;;;4977986;28;20030;-77
2021/09/29 03:06:15;;;;;;;2.30;2.00;;;14.90;99.90;;;;;;4995163;28;20106;-78
2021/09/29 03:08:41;;;;;;;2.78;0.65;;;14.80;99.90;;;;;;4995064;28;20062;-77
2021/09/29 03:11:09;;;;;;;0.88;0.68;;;14.80;99.90;;;;;;4978099;28;20026;-77
2021/09/29 03:13:35;;;;;;;0.00;0.00;;;14.80;99.90;;;;;;4995296;28;20022;-77
2021/09/29 03:16:01;;;;;;;0.00;0.00;;;14.70;99.90;;;;;;4961408;28;20041;-77
2021/09/29 03:18:26;;;;;;;0.20;0.20;;;14.70;99.90;;;;;;4977396;28;20386;-78
2021/09/29 03:20:52;;;;;;;0.20;0.20;;;14.60;99.90;;;;;;4977758;28;20026;-77
2021/09/29 03:23:18;;;;;;;0.63;0.63;;;14.70;99.90;;;;;;4977506;28;20018;-77
2021/09/29 03:25:44;;;;;;;0.30;0.30;;;14.60;99.90;;;;;;4994781;28;20122;-78
2021/09/29 03:28:10;;;;;;;5.15;2.45;;;14.60;99.90;;;;;;4977550;28;20027;-78
2021/09/29 03:30:36;;;;;;;0.00;0.00;;;14.70;99.90;;;;;;4994749;28;20033;-77
2021/09/29 03:33:06;;;;;;;0.30;0.30;;;14.80;99.90;;;;;;4994824;28;20625;-78
2021/09/29 03:35:35;;;;;;;0.52;0.52;;;14.70;99.90;;;;;;5010702;22;20115;-74
2021/09/29 03:38:01;;;;;;;0.25;0.25;;;14.80;99.90;;;;;;4994826;28;20045;-74
2021/09/29 03:40:27;;;;;;;0.10;0.10;;;14.70;99.90;;;;;;5014029;28;20112;-74
2021/09/29 03:42:52;;;;;;;0.00;0.00;;;14.70;99.90;;;;;;4996427;28;20112;-74
2021/09/29 03:45:18;;;;;;;0.28;0.28;;;14.80;99.90;;;;;;4996013;28;20033;-74
2021/09/29 03:47:45;;;;;;;0.75;0.52;;;14.80;99.90;;;;;;4996258;28;20034;-75
2021/09/29 03:50:12;;;;;;;0.10;0.10;;;14.70;99.90;;;;;;5012722;28;20033;-74
2021/09/29 03:52:40;;;;;;;0.10;0.10;;;14.80;99.90;;;;;;5014021;28;20030;-74
2021/09/29 03:55:07;;;;;;;5.15;1.95;;;14.80;99.90;;;;;;5013399;28;20088;-74
2021/09/29 03:57:34;;;;;;;0.85;0.85;;;14.90;99.90;;;;;;5013572;28;20060;-74
2021/09/29 04:00:01;;;;;;;0.10;0.10;;;15.00;99.90;;;;;;5013794;28;20018;-74
2021/09/29 04:02:27;;;;;;;0.20;0.20;;;15.00;99.90;;;;;;5013608;28;20029;-74
2021/09/29 04:04:53;;;;;;;0.45;0.45;;;15.00;99.90;;;;;;5013361;28;20028;-74
2021/09/29 04:07:18;;;;;;;0.10;0.10;;;14.90;99.90;;;;;;5013495;28;20022;-74
2021/09/29 04:09:46;;;;;;;1.02;1.02;;;14.90;99.90;;;;;;5013391;28;20032;-75
2021/09/29 04:12:13;;;;;;;2.45;1.77;;;14.80;99.90;;;;;;5013603;28;20050;-74
2021/09/29 04:14:39;;;;;;;0.10;0.10;;;14.70;99.90;;;;;;5013249;28;20026;-74
2021/09/29 04:17:05;;;;;;;0.10;0.10;;;14.60;99.90;;;;;;5013247;28;20505;-74
2021/09/29 04:19:31;;;;;;;1.15;1.05;;;14.60;99.90;;;;;;4979378;28;20050;-74
2021/09/29 04:21:57;;;;;;;0.10;0.10;;;14.60;99.90;;;;;;5013187;28;20060;-74
2021/09/29 04:24:23;;;;;;;1.02;0.77;;;14.70;99.90;;;;;;5013029;28;20121;-74
2021/09/29 04:26:49;;;;;;;0.10;0.10;;;14.70;99.90;;;;;;5012767;28;20080;-75
2021/09/29 04:29:15;;;;;;;0.65;0.63;;;14.60;99.90;;;;;;4995430;28;20057;-74
2021/09/29 04:31:41;;;;;;;1.02;0.25;;;14.60;99.90;;;;;;5013032;28;20085;-74
2021/09/29 04:34:06;;;;;;;33.60;3.45;;;14.50;99.90;;;;;;4995759;28;20034;-74
2021/09/29 04:36:32;;;;;;;3.92;1.58;;;14.50;99.90;;;;;;5012590;28;20077;-74
2021/09/29 04:38:58;;;;;;;1.25;1.20;;;14.40;99.90;;;;;;5011544;28;20026;-74
2021/09/29 04:41:24;;;;;;;0.05;0.05;;;14.40;99.90;;;;;;5012891;28;20022;-74
2021/09/29 04:43:50;;;;;;;0.45;0.45;;;14.40;99.90;;;;;;4995240;28;20022;-74
2021/09/29 04:46:15;;;;;;;0.30;0.20;;;14.40;99.90;;;;;;4995238;28;20474;-74
2021/09/29 04:48:41;;;;;;;2.85;1.65;;;14.40;99.90;;;;;;4994988;28;20026;-74
2021/09/29 04:51:07;;;;;;;0.10;0.10;;;14.50;99.90;;;;;;5012714;28;20084;-74
2021/09/29 04:53:33;;;;;;;1.00;0.70;;;14.60;99.90;;;;;;4978768;28;20121;-74
2021/09/29 04:56:00;;;;;;;0.22;0.22;;;14.50;99.90;;;;;;5012378;28;20131;-74
2021/09/29 04:58:29;;;;;;;0.20;0.20;;;14.60;99.90;;;;;;5012508;28;20026;-74
2021/09/29 05:00:55;;;;;;;2.17;0.73;;;14.60;99.90;;;;;;4994868;28;20104;-74
2021/09/29 05:03:22;;;;;;;4.95;1.00;;;14.60;99.90;;;;;;5012491;28;20381;-74
2021/09/29 05:05:48;;;;;;;1.27;1.13;;;14.70;99.90;;;;;;5012361;28;20018;-74
2021/09/29 05:08:20;;;;;;;0.10;0.10;;;14.60;99.90;;;;;;5012214;28;20466;-74
2021/09/29 05:11:26;;;;;;;2.38;0.93;;;14.60;99.90;;;;;;4994791;28;20049;-75
2021/09/29 05:13:52;;;;;;;0.52;0.50;;;14.70;99.90;;;;;;5012446;28;20033;-75
2021/09/29 05:16:18;;;;;;;1.98;1.25;;;14.70;99.90;;;;;;5011992;28;20026;-74
2021/09/29 05:18:44;;;;;;;0.93;0.88;;;14.70;99.90;;;;;;5012226;28;20452;-74
2021/09/29 05:21:09;;;;;;;0.10;0.10;;;14.70;99.90;;;;;;4978331;28;20026;-74
2021/09/29 05:23:35;;;;;;;0.82;0.82;;;14.70;99.90;;;;;;4994680;28;20392;-74
2021/09/29 05:26:01;;;;;;;2.65;0.95;;;14.70;99.90;;;;;;5011923;28;20461;-74
2021/09/29 05:28:30;;;;;;;0.32;0.30;;;14.80;99.90;;;;;;5011884;28;20057;-74
2021/09/29 05:30:57;;;;;;;0.00;0.00;;;14.70;99.90;;;;;;5011201;28;20055;-74
2021/09/29 05:33:23;;;;;;;0.10;0.10;;;14.80;99.90;;;;;;4993809;28;20022;-74
2021/09/29 05:35:48;;;;;;;0.28;0.28;;;14.80;99.90;;;;;;4998815;28;20034;-74
2021/09/29 05:38:14;;;;;;;1.27;1.17;;;14.80;99.90;;;;;;4992322;28;20022;-74
2021/09/29 05:40:40;;;;;;;0.20;0.20;;;14.70;99.90;;;;;;5002913;28;20022;-74
2021/09/29 05:43:06;;;;;;;0.10;0.10;;;14.60;99.90;;;;;;4994312;28;20026;-74
2021/09/29 05:45:32;;;;;;;3.40;1.17;;;14.60;99.90;;;;;;4994119;28;20022;-74
2021/09/29 05:47:57;;;;;;;0.10;0.10;;;14.60;99.90;;;;;;4994151;28;20040;-74
2021/09/29 05:50:23;;;;;;;1.48;0.43;;;14.60;99.90;;;;;;4994231;28;20030;-74
2021/09/29 05:52:49;;;;;;;0.10;0.10;;;14.60;99.90;;;;;;5011763;28;20022;-74
2021/09/29 05:55:15;;;;;;;2.35;0.80;;;14.50;99.90;;;;;;5010542;28;20030;-75
2021/09/29 05:57:40;;;;;;;0.20;0.20;;;14.50;99.90;;;;;;5009679;28;20022;-74
2021/09/29 06:00:07;;;;;;;0.73;0.50;;;14.60;99.90;;;;;;4977006;28;20026;-74
2021/09/29 06:02:33;;;;;;;0.20;0.20;;;14.60;99.90;;;;;;5011095;28;20026;-74
2021/09/29 06:04:58;;;;;;;3.88;1.40;;;14.50;99.90;;;;;;4994036;28;20033;-74
2021/09/29 06:07:24;;;;;;;2.83;1.08;;;14.40;99.90;;;;;;5011787;28;20509;-74
2021/09/29 06:09:50;;;;;;;0.10;0.10;;;14.40;99.90;;;;;;5011798;28;20030;-74
2021/09/29 06:12:16;;;;;;;0.22;0.22;;;14.30;99.90;;;;;;4995155;28;20459;-74
2021/09/29 06:14:48;;;;;;;1.13;1.02;;;14.20;99.90;;;;;;4997911;28;20501;-74
2021/09/29 06:17:35;;;;;;;4.03;1.25;;;14.10;99.90;;;;;;5015470;28;20018;-74
2021/09/29 06:20:02;;;;;;;0.47;0.47;;;14.10;99.90;;;;;;4981782;28;20030;-74
2021/09/29 06:22:28;;;;;;;0.40;0.40;;;14.00;99.90;;;;;;4997827;28;20385;-74
2021/09/29 06:24:54;;;;;;;1.08;1.00;;;14.00;99.90;;;;;;5014925;28;20018;-75
2021/09/29 06:27:19;;;;;;;0.20;0.20;;;13.90;99.90;;;;;;4997466;28;20112;-74
2021/09/29 06:29:45;;;;;;;0.30;0.30;;;13.90;99.90;;;;;;4994283;28;20101;-74
2021/09/29 06:32:11;;;;;;;0.40;0.40;;;14.00;99.90;;;;;;4990617;28;20501;-75
2021/09/29 06:34:37;;;;;;;0.45;0.45;;;14.10;99.90;;;;;;5004592;28;20548;-74
2021/09/29 06:37:03;;;;;;;0.10;0.10;;;14.10;99.90;;;;;;4996986;28;20064;-74
2021/09/29 06:39:29;;;;;;;0.70;0.57;;;14.00;99.90;;;;;;5000451;28;20033;-74
2021/09/29 06:41:55;;;;;;;0.55;0.45;;;14.00;99.90;;;;;;4995477;28;20517;-74
2021/09/29 06:44:21;;;;;;;1.35;0.63;;;14.10;99.90;;;;;;4978061;28;20077;-74
2021/09/29 06:46:47;;;;;;;0.55;0.47;;;13.90;99.90;;;;;;4999266;28;20477;-75
2021/09/29 06:49:13;;;;;;;1.67;1.08;;;13.90;99.90;;;;;;5014215;28;20083;-74
2021/09/29 06:51:39;;;;;;;1.83;1.40;;;13.90;99.90;;;;;;5012943;28;20025;-74
2021/09/29 06:54:05;;;;;;;0.40;0.40;;;13.90;99.90;;;;;;5012709;28;20125;-74
2021/09/29 06:56:31;;;;;;;0.10;0.10;;;13.90;99.90;;;;;;5013136;28;20034;-74
2021/09/29 06:58:57;;;;;;;0.10;0.10;;;13.80;99.90;;;;;;5013400;28;20385;-74
2021/09/29 07:01:23;;;;;;;0.63;0.63;;;13.80;99.90;;;;;;5010123;28;20018;-74
2021/09/29 07:03:50;;;;;;;0.30;0.30;;;13.80;99.90;;;;;;4977497;28;20098;-74
2021/09/29 07:06:16;;;;;;;0.00;0.00;;;13.70;99.90;;;;;;4977134;28;20034;-74
2021/09/29 07:08:42;;;;;;;0.30;0.30;;;13.80;99.90;;;;;;4977303;28;20034;-74
2021/09/29 07:11:08;;;;;;;1.65;0.30;;;13.90;99.90;;;;;;4994560;28;20022;-74
2021/09/29 07:13:34;;;;;;;0.32;0.32;;;13.80;99.90;;;;;;4977462;28;20433;-74
2021/09/29 07:16:01;;;;;;;9.57;2.45;;;13.90;99.90;;;;;;4994281;28;20085;-74
2021/09/29 07:18:29;;;;;;;0.57;0.57;;;13.80;99.90;;;;;;4994614;28;20026;-74
2021/09/29 07:20:55;;;;;;;0.13;0.13;;;13.90;99.90;;;;;;4979996;28;20105;-74
2021/09/29 07:23:21;;;;;;;0.80;0.75;;;13.90;99.90;;;;;;4987306;28;20054;-74
2021/09/29 07:25:47;;;;;;;0.85;0.65;;;13.90;99.90;;;;;;5005240;28;20481;-74
2021/09/29 07:28:13;;;;;;;1.77;1.13;;;13.90;99.90;;;;;;5013987;28;20037;-74
2021/09/29 07:30:41;;;;;;;0.05;0.05;;;13.80;99.90;;;;;;4996405;28;20034;-74
2021/09/29 07:33:08;;;;;;;1.23;1.13;;;14.00;99.90;;;;;;5013958;28;20048;-74
2021/09/29 07:35:34;;;;;;;0.20;0.20;;;14.10;99.90;;;;;;4995942;28;20033;-74
2021/09/29 07:38:01;;;;;;;1.77;1.60;;;14.00;99.90;;;;;;4994817;28;20030;-74
2021/09/29 07:40:30;;;;;;;0.68;0.32;;;14.10;99.90;;;;;;4996041;28;20208;-74
2021/09/29 07:42:56;;;;;;;0.10;0.10;;;14.10;99.90;;;;;;4996186;28;20397;-74
2021/09/29 07:45:23;;;;;;;0.10;0.10;;;14.10;99.90;;;;;;5013439;28;20477;-74
2021/09/29 07:47:49;;;;;;;0.17;0.13;;;14.10;99.90;;;;;;5013004;28;20109;-74
2021/09/29 07:50:16;;;;;;;0.20;0.20;;;14.00;99.90;;;;;;5013424;28;20085;-75
2021/09/29 07:52:43;;;;;;;0.10;0.10;;;14.00;99.90;;;;;;4996011;28;20030;-74
2021/09/29 07:55:11;;;;;;;0.10;0.10;;;14.10;99.90;;;;;;4995711;28;20104;-74
2021/09/29 07:57:37;;;;;;;0.10;0.10;;;14.10;99.90;;;;;;5013500;28;20044;-75
2021/09/29 08:00:04;;;;;;;0.10;0.10;;;14.20;99.90;;;;;;5013434;28;20026;-75
2021/09/29 08:02:30;;;;;;;2.03;1.30;;;14.30;99.90;;;;;;5013438;28;20026;-74
2021/09/29 08:04:58;;;;;;;1.20;1.10;;;14.40;99.90;;;;;;4995549;28;20026;-74
2021/09/29 08:07:24;;;;;;;0.30;0.30;;;14.20;99.90;;;;;;5013215;28;20021;-75
2021/09/29 08:09:49;;;;;;;0.20;0.20;;;14.20;99.90;;;;;;5013246;28;20377;-75
2021/09/29 08:12:15;;;;;;;0.10;0.10;;;14.30;99.90;;;;;;4995489;28;20050;-75
2021/09/29 08:14:41;;;;;;;0.30;0.30;;;14.40;99.90;;;;;;4995378;28;20409;-74
2021/09/29 08:17:07;;;;;;;1.80;1.17;;;14.40;99.90;;;;;;5012922;28;20036;-75
2021/09/29 08:19:34;;;;;;;0.10;0.10;;;14.30;99.90;;;;;;5012948;28;20072;-75
2021/09/29 08:22:03;;;;;;;0.52;0.52;;;14.20;99.90;;;;;;5013026;28;20026;-74
2021/09/29 08:24:38;;;;;;;1.17;0.85;;;14.10;99.90;;;;;;5012803;28;20072;-74
2021/09/29 08:27:14;;;;;;;0.30;0.30;;;14.10;99.90;;;;;;5012767;28;20386;-74
2021/09/29 08:32:28;;;;;;;1.08;0.70;;;13.90;99.90;;;;;;5012787;28;20386;-75
2021/09/29 08:40:04;;;;;;;1.02;0.47;;;14.00;99.90;;;;;;4994982;28;20029;-75
2021/09/29 08:42:58;;;;;;;0.20;0.20;;;14.00;99.90;;;;;;5012734;28;20041;-74
2021/09/29 08:45:33;;;;;;;0.25;0.25;;;14.20;99.90;;;;;;4994918;28;20023;-75
2021/09/29 08:48:22;;;;;;;0.47;0.47;;;14.40;99.90;;;;;;4994748;28;20033;-75
2021/09/29 09:14:53;;;;;;;1.02;0.32;;;14.90;99.90;;;;;;5012114;28;20482;-72
2021/09/29 09:17:48;;;;;;;0.55;0.55;;;14.90;99.90;;;;;;5012040;28;20080;-72
2021/09/29 09:20:21;;;;;;;0.10;0.10;;;14.80;99.90;;;;;;4995150;28;20462;-72
2021/09/29 09:22:52;;;;;;;0.15;0.15;;;15.00;99.90;;;;;;5007032;28;20017;-71
2021/09/29 09:25:31;;;;;;;0.20;0.20;;;15.20;99.90;;;;;;4987792;28;20018;-72
2021/09/29 09:27:57;;;;;;;0.20;0.20;;;15.20;99.90;;;;;;4991966;28;20027;-72
2021/09/29 09:30:31;;;;;;;0.20;0.20;;;15.20;99.90;;;;;;5004915;28;20033;-72
2021/09/29 09:32:58;;;;;;;0.50;0.50;;;15.30;99.90;;;;;;4994099;28;20033;-72
2021/09/29 09:35:28;;;;;;;0.55;0.55;;;15.20;99.90;;;;;;5010568;28;20381;-72
2021/09/29 09:37:59;;;;;;;0.88;0.38;;;15.10;99.90;;;;;;5007129;28;20066;-72
2021/09/29 09:40:29;;;;;;;0.10;0.10;;;15.20;99.90;;;;;;4990738;28;20106;-72
2021/09/29 09:42:57;;;;;;;0.10;0.10;;;15.40;99.90;;;;;;4973198;28;20022;-73
2021/09/29 09:45:41;;;;;;;0.73;0.73;;;15.20;99.90;;;;;;4990281;28;20113;-73
2021/09/29 09:48:14;;;;;;;1.10;1.00;;;15.30;99.90;;;;;;4993043;28;20118;-73
2021/09/29 09:50:40;;;;;;;2.80;2.58;;;15.40;99.90;;;;;;4995651;28;20026;-72
2021/09/29 09:53:12;;;;;;;0.10;0.10;;;15.50;99.90;;;;;;4996273;28;20101;-74
2021/09/29 09:55:38;;;;;;;0.22;0.22;;;15.60;99.90;;;;;;4978313;28;20031;-75
2021/09/29 09:58:04;;;;;;;0.50;0.50;;;15.60;99.90;;;;;;4996218;28;20096;-74
2021/09/29 10:00:32;;;;;;;0.17;0.17;;;15.70;99.90;;;;;;4996183;28;20029;-75
2021/09/29 10:03:00;;;;;;;0.10;0.10;;;15.60;99.90;;;;;;4996193;28;20023;-74
2021/09/29 10:05:28;;;;;;;0.10;0.10;;;15.50;99.90;;;;;;4996346;28;20116;-75
2021/09/29 10:07:54;;;;;;;0.10;0.10;;;15.40;99.90;;;;;;4985157;28;20068;-75
2021/09/29 10:10:28;;;;;;;0.65;0.65;;;15.30;99.90;;;;;;5015624;28;20029;-74
2021/09/29 10:27:13;;;;;;;0.10;0.10;;;16.30;99.90;;;;;;5015040;28;20033;-75
2021/09/29 10:29:44;;;;;;;0.20;0.20;;;16.50;99.90;;;;;;5015332;28;20532;-75
2021/09/29 10:32:16;;;;;;;0.20;0.20;;;16.10;99.90;;;;;;5014877;28;20030;-75
2021/09/29 10:35:00;;;;;;;0.40;0.40;;;15.90;99.90;;;;;;4997225;28;20084;-74
2021/09/29 10:40:39;;;;;;;0.00;0.00;;;15.90;99.90;;;;;;4996959;28;20094;-75
2021/09/29 10:43:16;;;;;;;0.13;0.13;;;15.80;99.90;;;;;;5014845;28;20096;-75
2021/09/29 10:46:03;;;;;;;0.43;0.43;;;15.70;99.90;;;;;;5014557;28;20473;-75
2021/09/29 10:48:45;;;;;;;0.10;0.10;;;15.90;99.90;;;;;;5014540;28;20045;-75
2021/09/29 11:34:49;;;;;;;0.20;0.20;;;17.20;99.90;;;;;;4996097;28;20385;-75
2021/09/29 11:48:49;;;;;;;0.43;0.15;;;17.30;99.90;;;;;;5009455;28;20014;-75
2021/09/29 12:08:06;;;;;;;0.10;0.10;;;17.10;99.90;;;;;;5012158;28;20026;-75
2021/09/29 12:10:32;;;;;;;;;;;17.20;99.90;;;;;;5011912;28;20018;-73
2021/09/29 12:13:04;;;;;;;0.10;0.10;;;17.30;99.90;;;;;;5011943;28;20357;-75
2021/09/29 12:15:29;;;;;;;0.10;0.10;;;17.50;99.90;;;;;;4994552;28;20026;-75
2021/09/29 12:17:55;;;;;;;0.17;0.17;;;17.40;99.90;;;;;;5012282;28;20367;-75
2021/09/29 12:20:25;;;;;;;0.40;0.40;;;17.50;99.90;;;;;;4994693;28;20584;-76
2021/09/29 12:22:56;;;;;;;0.30;0.30;;;17.50;99.90;;;;;;4994472;28;20022;-75
2021/09/29 12:25:47;;;;;;;0.20;0.20;;;17.50;99.90;;;;;;5012248;28;20055;-74
2021/09/29 12:28:24;;;;;;;0.10;0.10;;;17.50;99.90;;;;;;5011965;28;20216;-74
2021/09/29 12:33:56;;;;;;;0.17;0.17;;;17.50;99.90;;;;;;4994462;28;20033;-74
2021/09/29 12:36:34;;;;;;;0.20;0.20;;;17.20;99.90;;;;;;4975168;28;1063891;-74
2021/09/29 12:39:15;;;;;;;1.08;0.63;;;17.10;99.90;;;;;;4995122;28;20034;-74
2021/09/29 12:42:01;;;;;;;0.10;0.10;;;17.00;99.90;;;;;;5012839;28;20080;-73
2021/09/29 12:44:26;;;;;;;0.25;0.25;;;16.90;99.90;;;;;;5012824;28;20084;-74
2021/09/29 12:49:35;;;;;;;0.10;0.10;;;17.00;99.90;;;;;;5009232;28;20018;-74
2021/09/29 12:52:10;;;;;;;0.20;0.20;;;16.90;99.90;;;;;;5012424;28;20053;-74
2021/09/29 12:54:40;;;;;;;0.25;0.25;;;17.00;99.90;;;;;;5010796;28;20018;-73
2021/09/29 12:57:05;;;;;;;0.10;0.10;;;16.90;99.90;;;;;;5011516;28;20049;-73
2021/09/29 12:59:31;;;;;;;0.65;0.40;;;16.70;99.90;;;;;;5012248;28;20477;-74
2021/09/29 13:01:57;;;;;;;0.20;0.20;;;16.70;99.90;;;;;;4993338;28;20045;-74
2021/09/29 13:04:22;;;;;;;0.30;0.30;;;16.80;99.90;;;;;;5012399;28;20026;-74
2021/09/29 13:06:48;;;;;;;0.10;0.10;;;16.80;99.90;;;;;;5012313;28;20030;-73
2021/09/29 13:09:14;;;;;;;0.20;0.20;;;16.90;99.90;;;;;;4994530;28;20121;-74
2021/09/29 13:11:40;;;;;;;0.30;0.30;;;16.80;99.90;;;;;;5012343;28;20030;-74
2021/09/29 13:14:05;;;;;;;0.75;0.47;;;16.90;99.90;;;;;;5012280;28;20060;-74
2021/09/29 13:16:32;;;;;;;0.10;0.10;;;16.70;99.90;;;;;;5012021;28;20032;-74
2021/09/29 13:19:05;;;;;;;0.30;0.30;;;16.70;99.90;;;;;;5012093;28;20022;-74
2021/09/29 13:21:37;;;;;;;0.43;0.43;;;16.70;99.90;;;;;;4994424;28;20493;-73
2021/09/29 13:24:12;;;;;;;0.10;0.10;;;16.70;99.90;;;;;;5009476;28;20026;-74
2021/09/29 13:26:58;;;;;;;0.10;0.10;;;16.80;99.90;;;;;;5007459;28;20014;-74
2021/09/29 13:37:23;;;;;;;0.20;0.20;;;17.20;99.90;;;;;;5011588;28;20379;-74
2021/09/29 13:39:50;;;;;;;0.10;0.10;;;17.00;99.90;;;;;;5012045;28;20041;-74
2021/09/29 13:42:17;;;;;;;0.20;0.20;;;17.00;99.90;;;;;;5011570;28;20048;-74
2021/09/29 13:44:43;;;;;;;0.10;0.10;;;17.00;99.90;;;;;;5011589;28;20021;-72
2021/09/29 13:47:09;;;;;;;0.10;0.10;;;16.90;99.90;;;;;;5011636;28;20021;-72
2021/09/29 13:49:35;;;;;;;0.13;0.13;;;17.00;99.90;;;;;;5011658;28;20032;-72
2021/09/29 13:52:01;;;;;;;0.10;0.10;;;17.00;99.90;;;;;;4993862;28;20117;-71
2021/09/29 13:54:27;;;;;;;0.10;0.10;;;17.00;99.90;;;;;;5011094;28;20034;-72
2021/09/29 13:57:13;;;;;;;0.10;0.10;;;17.30;99.90;;;;;;5011334;28;20022;-72
2021/09/29 13:59:56;;;;;;;0.10;0.10;;;17.30;99.90;;;;;;5011758;28;20026;-73
2021/09/29 14:29:42;;;;;;;0.15;0.15;;;17.10;97.60;;;;;;5011180;28;20034;-74
2021/09/29 14:32:15;;;;;;;0.25;0.25;;;17.00;98.90;;;;;;5011538;28;20072;-74
2021/09/29 14:34:41;;;;;;;0.20;0.20;;;17.20;98.10;;;;;;5014180;28;20468;-74
2021/09/29 14:37:09;;;;;;;0.10;0.10;;;17.20;97.20;;;;;;5014812;28;20117;-72
2021/09/29 14:39:35;;;;;;;0.15;0.15;;;17.10;98.80;;;;;;5014918;28;20026;-72
2021/09/29 14:42:01;;;;;;;0.10;0.10;;;17.20;96.90;;;;;;5015030;28;20033;-73
2021/09/29 14:44:29;;;;;;;0.10;0.10;;;17.20;97.70;;;;;;5015053;28;20097;-73
2021/09/29 14:46:55;;;;;;;2.00;1.20;;;17.30;96.40;;;;;;5014957;28;20084;-73
2021/09/29 14:49:21;;;;;;;0.10;0.10;;;17.40;95.50;;;;;;5014795;28;20030;-73
2021/09/29 14:51:47;;;;;;;0.10;0.10;;;17.40;95.20;;;;;;5014833;28;20468;-73
2021/09/29 14:54:13;;;;;;;0.15;0.15;;;17.40;95.20;;;;;;5014605;28;20139;-73
2021/09/29 14:56:39;;;;;;;0.10;0.10;;;17.30;97.10;;;;;;4995253;28;20022;-72
2021/09/29 14:59:06;;;;;;;0.10;0.10;;;17.30;99.40;;;;;;5014459;28;20025;-76
2021/09/29 15:01:32;;;;;;;0.10;0.10;;;17.50;99.90;;;;;;5014686;28;20101;-73
2021/09/29 15:03:58;;;;;;;0.10;0.10;;;17.50;99.90;;;;;;5014578;28;20022;-73
2021/09/29 15:06:25;;;;;;;1.38;0.80;;;17.60;99.90;;;;;;5014387;28;20481;-73
2021/09/29 15:08:51;;;;;;;0.10;0.10;;;17.70;99.10;;;;;;5014349;28;20022;-73
2021/09/29 15:11:17;;;;;;;0.10;0.10;;;17.80;98.60;;;;;;5014225;28;20037;-73
2021/09/29 15:13:53;;;;;;;0.17;0.17;;;17.80;97.50;;;;;;4982558;28;20034;-74
2021/09/29 15:16:32;;;;;;;0.10;0.10;;;17.70;95.90;;;;;;4994408;28;20022;-75
2021/09/29 15:21:35;;;;;;;0.10;0.10;;;17.70;96.70;;;;;;4984381;28;20058;-74
2021/09/29 15:29:55;;;;;;;0.10;0.10;;;17.20;96.40;;;;;;4993284;28;20402;-75
2021/09/29 15:46:19;;;;;;;0.15;0.15;;;17.30;97.20;;;;;;5037808;23;20137;-91
2021/09/29 15:51:24;;;;;;;0.10;0.10;;;17.40;97.80;;;;;;4937405;29;20071;-92
2021/09/29 15:54:07;;;;;;;0.10;0.10;;;17.40;98.20;;;;;;4958865;28;20069;-92
2021/09/29 15:59:10;;;;;;;0.10;0.10;;;17.40;97.50;;;;;;5014935;28;20057;-92
2021/09/29 16:04:20;;;;;;;0.20;0.20;;;17.30;97.50;;;;;;5015385;28;20021;-93
2021/09/29 16:06:53;;;;;;;0.10;0.10;;;17.40;97.40;;;;;;4976293;28;20113;-94
2021/09/29 16:09:41;;;;;;;0.10;0.10;;;17.40;97.50;;;;;;4980927;28;20068;-93
2021/09/29 16:15:11;;;;;;;0.10;0.10;;;17.20;97.80;;;;;;4974555;28;20077;-92